createdAt,value
2019-02-11T15:32:56.247Z,22.901
2019-02-11T15:33:13.472Z,23.101
2019-02-11T15:33:29.485Z,23.326
2019-02-11T15:33:45.420Z,23.451
2019-02-11T15:34:01.342Z,23.606
2019-02-11T15:34:17.244Z,23.708
2019-02-11T15:34:33.173Z,23.82
2019-02-11T15:34:49.074Z,23.862
2019-02-11T15:35:04.978Z,23.892
2019-02-11T15:35:20.892Z,23.806
2019-02-11T15:35:36.820Z,23.862
2019-02-11T15:35:52.751Z,24.004
2019-02-11T15:36:08.636Z,24.031
2019-02-11T15:36:24.519Z,24.145
2019-02-11T15:36:40.463Z,24.159
2019-02-11T15:36:56.350Z,24.159
2019-02-11T15:37:12.233Z,24.228
2019-02-11T15:37:28.188Z,24.33
2019-02-11T15:37:44.185Z,24.33
2019-02-11T15:38:00.096Z,24.343
2019-02-11T15:38:15.968Z,24.316
2019-02-11T15:38:31.851Z,24.284
2019-02-11T15:38:47.848Z,24.3
2019-02-11T15:39:03.723Z,24.316
2019-02-11T15:39:19.601Z,24.316
2019-02-11T15:39:35.495Z,24.33
2019-02-11T15:39:51.434Z,24.316
2019-02-11T15:40:07.332Z,24.359
2019-02-11T15:40:23.286Z,22.717
2019-02-11T15:40:39.178Z,22.618
2019-02-11T15:40:55.054Z,22.733
2019-02-11T15:41:10.965Z,22.704
2019-02-11T15:41:26.875Z,23.171
2019-02-11T15:41:42.772Z,23.411
2019-02-11T15:41:58.737Z,23.55
2019-02-11T15:42:14.618Z,23.649
2019-02-11T15:42:30.525Z,23.708
2019-02-11T15:42:46.422Z,23.708
2019-02-11T15:43:02.352Z,23.78
2019-02-11T15:43:18.253Z,23.494
2019-02-11T15:43:34.138Z,22.292
2019-02-11T15:43:50.012Z,22.434
2019-02-11T15:44:05.914Z,20.511
2019-02-11T15:44:21.792Z,21.515
2019-02-11T15:44:37.774Z,21.459
2019-02-11T15:44:53.684Z,21.531
2019-02-11T15:45:09.573Z,22.025
2019-02-11T15:45:25.498Z,22.306
2019-02-11T15:45:41.412Z,22.605
2019-02-11T15:45:57.312Z,22.816
2019-02-11T15:46:13.311Z,23.013
2019-02-11T15:46:29.234Z,23.256
2019-02-11T15:46:45.118Z,23.438
2019-02-11T15:47:00.989Z,23.593
2019-02-11T15:47:16.881Z,23.793
2019-02-11T15:47:32.765Z,23.836
2019-02-11T15:47:48.670Z,23.948
2019-02-11T15:48:04.600Z,23.991
2019-02-11T15:48:20.478Z,24.073
2019-02-11T15:48:42.857Z,24.116
2019-02-11T15:48:59.352Z,24.159
2019-02-11T15:49:15.241Z,24.228
2019-02-11T15:49:31.195Z,24.284
2019-02-11T15:49:47.071Z,24.316
2019-02-11T15:50:02.962Z,24.33
2019-02-11T15:50:18.833Z,24.372
2019-02-11T15:50:34.739Z,24.343
2019-02-11T15:50:50.605Z,24.33
2019-02-11T15:51:06.518Z,24.359
2019-02-11T15:51:22.379Z,24.33
2019-02-11T15:51:38.246Z,24.372
2019-02-11T15:51:54.133Z,24.33
2019-02-11T15:52:10.009Z,24.386
2019-02-11T15:52:25.949Z,24.415
2019-02-11T15:52:41.877Z,24.402
2019-02-11T15:52:59.056Z,24.402
2019-02-11T15:53:15.005Z,24.386
2019-02-11T15:53:30.932Z,24.415
2019-02-11T15:53:46.867Z,24.442
2019-02-11T15:54:02.758Z,24.485
2019-02-11T15:54:18.669Z,24.527
2019-02-11T15:54:34.557Z,24.527
2019-02-11T15:54:50.435Z,24.557
2019-02-11T15:55:06.328Z,24.557
2019-02-11T15:55:22.247Z,24.57
2019-02-11T15:55:38.146Z,24.57
2019-02-11T15:55:54.081Z,24.57
2019-02-11T15:56:09.958Z,24.557
2019-02-11T15:56:25.837Z,24.498
2019-02-11T15:56:41.702Z,24.498
2019-02-11T15:56:57.553Z,24.458
2019-02-11T15:57:13.471Z,24.458
2019-02-11T15:57:29.312Z,24.442
2019-02-11T15:57:45.196Z,24.485
2019-02-11T15:58:01.132Z,24.557
2019-02-11T15:58:17.085Z,24.57
2019-02-11T15:58:33.171Z,24.527
2019-02-11T15:58:49.356Z,24.541
2019-02-11T15:59:05.426Z,24.557
2019-02-11T15:59:21.324Z,24.57
2019-02-11T15:59:37.217Z,24.541
2019-02-11T15:59:53.169Z,24.57
2019-02-11T16:00:09.077Z,24.583
2019-02-11T16:00:24.986Z,24.557
2019-02-11T16:00:40.896Z,24.514
2019-02-11T16:00:56.832Z,24.541
2019-02-11T16:01:12.747Z,24.583
2019-02-11T16:01:28.840Z,24.527
2019-02-11T16:01:44.720Z,24.557
2019-02-11T16:02:00.618Z,24.557
2019-02-11T16:02:16.586Z,24.626
2019-02-11T16:02:32.460Z,24.696
2019-02-11T16:02:48.348Z,24.738
2019-02-11T16:03:04.261Z,24.752
2019-02-11T16:03:20.204Z,24.808
2019-02-11T16:03:36.073Z,24.794
2019-02-11T16:03:51.951Z,24.712
2019-02-11T16:04:07.836Z,24.712
2019-02-11T16:04:23.759Z,24.738
2019-02-11T16:04:39.616Z,24.682
2019-02-11T16:05:02.065Z,24.669
2019-02-11T16:05:18.859Z,24.626
2019-02-11T16:05:34.786Z,24.696
2019-02-11T16:05:50.688Z,24.738
2019-02-11T16:06:10.131Z,24.781
2019-02-11T16:06:26.732Z,24.781
2019-02-11T16:06:42.650Z,24.808
2019-02-11T16:06:58.578Z,24.824
2019-02-11T16:07:14.460Z,24.864
2019-02-11T16:07:30.342Z,24.864
2019-02-11T16:07:46.226Z,24.808
2019-02-11T16:08:02.121Z,24.794
2019-02-11T16:08:18.004Z,24.824
2019-02-11T16:08:33.871Z,24.824
2019-02-11T16:08:49.825Z,24.824
2019-02-11T16:09:05.720Z,24.837
2019-02-11T16:09:21.606Z,24.794
2019-02-11T16:09:37.543Z,24.824
2019-02-11T16:09:53.411Z,24.794
2019-02-11T16:10:09.372Z,24.794
2019-02-11T16:10:25.271Z,24.781
2019-02-11T16:10:41.169Z,24.781
2019-02-11T16:11:01.379Z,24.725
2019-02-11T16:11:17.699Z,24.85
2019-02-11T16:11:33.594Z,24.808
2019-02-11T16:11:49.490Z,24.837
2019-02-11T16:12:05.496Z,24.653
2019-02-11T16:12:21.780Z,24.696
2019-02-11T16:12:37.704Z,24.316
2019-02-11T16:12:53.621Z,23.919
2019-02-11T16:13:09.518Z,24.089
2019-02-11T16:13:25.447Z,24.284
2019-02-11T16:13:41.356Z,24.316
2019-02-11T16:13:57.238Z,24.186
2019-02-11T16:14:13.147Z,24.284
2019-02-11T16:14:29.237Z,24.3
2019-02-11T16:14:45.121Z,24.33
2019-02-11T16:15:01.005Z,24.386
2019-02-11T16:15:16.933Z,24.372
2019-02-11T16:15:35.056Z,24.372
2019-02-11T16:15:50.997Z,24.386
2019-02-11T16:16:06.906Z,24.442
2019-02-11T16:16:22.776Z,24.458
2019-02-11T16:16:38.698Z,24.471
2019-02-11T16:16:54.589Z,24.429
2019-02-11T16:17:10.476Z,24.415
2019-02-11T16:17:26.365Z,24.498
2019-02-11T16:17:42.242Z,24.458
2019-02-11T16:17:58.126Z,24.442
2019-02-11T16:18:14.001Z,24.485
2019-02-11T16:18:30.082Z,24.498
2019-02-11T16:18:51.672Z,24.498
2019-02-11T16:19:08.017Z,24.442
2019-02-11T16:19:23.860Z,24.485
2019-02-11T16:19:39.744Z,24.485
2019-02-11T16:19:55.630Z,24.429
2019-02-11T16:20:11.528Z,24.485
2019-02-11T16:20:27.401Z,24.442
2019-02-11T16:20:43.293Z,24.429
2019-02-11T16:20:59.196Z,24.471
2019-02-11T16:21:15.082Z,24.458
2019-02-11T16:21:30.984Z,24.471
2019-02-11T16:21:46.916Z,24.498
2019-02-11T16:22:02.820Z,24.541
2019-02-11T16:22:18.678Z,24.57
2019-02-11T16:22:34.554Z,24.498
2019-02-11T16:22:50.430Z,24.541
2019-02-11T16:23:06.340Z,24.514
2019-02-11T16:23:22.211Z,24.514
2019-02-11T16:23:38.126Z,24.527
2019-02-11T16:23:54.011Z,24.613
2019-02-11T16:24:09.895Z,24.541
2019-02-11T16:24:25.908Z,24.527
2019-02-11T16:24:41.779Z,24.541
2019-02-11T16:24:57.706Z,24.514
2019-02-11T16:25:13.639Z,24.514
2019-02-11T16:25:29.596Z,24.527
2019-02-11T16:25:45.474Z,24.613
2019-02-11T16:26:01.370Z,24.626
2019-02-11T16:26:17.243Z,24.613
2019-02-11T16:26:33.117Z,24.653
2019-02-11T16:26:48.976Z,24.64
2019-02-11T16:27:04.880Z,24.64
2019-02-11T16:27:20.778Z,24.712
2019-02-11T16:27:36.638Z,24.752
2019-02-11T16:27:52.521Z,24.712
2019-02-11T16:28:08.495Z,24.696
2019-02-11T16:28:24.355Z,24.682
2019-02-11T16:28:40.266Z,24.64
2019-02-11T16:28:56.189Z,24.64
2019-02-11T16:29:12.075Z,24.669
2019-02-11T16:29:27.951Z,24.669
2019-02-11T16:29:43.888Z,24.725
2019-02-11T16:29:59.773Z,24.752
2019-02-11T16:30:15.654Z,24.752
2019-02-11T16:30:31.527Z,24.725
2019-02-11T16:30:47.403Z,24.738
2019-02-11T16:31:03.277Z,24.752
2019-02-11T16:31:19.242Z,24.794
2019-02-11T16:31:35.126Z,24.824
2019-02-11T16:31:51.013Z,24.824
2019-02-11T16:32:06.888Z,24.85
2019-02-11T16:32:22.814Z,24.893
2019-02-11T16:32:38.712Z,24.85
2019-02-11T16:32:54.592Z,24.85
2019-02-11T16:33:10.595Z,24.864
2019-02-11T16:33:26.478Z,24.893
2019-02-11T16:33:42.356Z,24.893
2019-02-11T16:33:58.305Z,24.907
2019-02-11T16:34:14.225Z,24.88
2019-02-11T16:34:30.145Z,24.781
2019-02-11T16:34:46.024Z,24.794
2019-02-11T16:35:01.936Z,24.768
2019-02-11T16:35:17.860Z,24.794
2019-02-11T16:35:33.729Z,24.794
2019-02-11T16:35:49.643Z,24.824
2019-02-11T16:36:05.530Z,24.752
2019-02-11T16:36:21.407Z,24.85
2019-02-11T16:36:37.277Z,24.794
2019-02-11T16:36:53.174Z,24.738
2019-02-11T16:37:09.054Z,24.752
2019-02-11T16:37:24.952Z,24.712
2019-02-11T16:37:40.904Z,24.752
2019-02-11T16:37:56.789Z,24.808
2019-02-11T16:38:12.650Z,24.794
2019-02-11T16:38:28.560Z,24.781
2019-02-11T16:38:44.435Z,24.794
2019-02-11T16:39:00.311Z,24.824
2019-02-11T16:39:16.193Z,24.837
2019-02-11T16:39:32.085Z,24.85
